Flight Track Log - Related Links

Times and Time Zones

All times are in EDT time to prevent confusion due to time zone crossing. See the UPS2332 flight status page for this flight to view local times or setup timezone preferences in your user account.

Time Position Orientation Groundspeed Altitude Reporting Facility
EDT Latitude Longitude Course Direction KTS MPH feet Rate Location/Type
Thu 04:51:00 PM 37.5403 -85.4143 190° South  Level Estimated
Thu 04:51:19 PM 37.9790 -86.0240 233° Southwest 419 482 18,200  Level FlightAware ADS-B
Thu 04:51:49 PM 37.9280 -86.0450 198° South 409 471 20,100 3,000 Climbing FlightAware ADS-B
Thu 04:52:00 PM 37.4714 -85.5285 233° Southwest  Level FlightAware Approximate
Thu 04:52:27 PM 37.8570 -86.0740 198° South 423 487 21,600  Level FlightAware ADS-B
Thu 04:53:09 PM 37.7760 -86.1060 197° South 434 499 23,400 2,389 Climbing FlightAware ADS-B
Thu 04:54:15 PM 37.6380 -86.1620 198° South 449 517 25,900 2,118 Climbing FlightAware ADS-B
Thu 04:54:51 PM 37.5680 -86.1890 197° South 450 518 27,000 2,000 Climbing FlightAware ADS-B
Thu 04:55:24 PM 37.5000 -86.2170 198° South 458 527 28,200 2,634 Climbing FlightAware ADS-B
Thu 04:56:13 PM 37.4020 -86.2560 198° South 445 512 30,600 2,747 Climbing FlightAware ADS-B
Thu 04:56:47 PM 37.3348 -86.2825 197° South 442 509 32,000 2,060 Climbing FlightAware ADS-B
Thu 04:57:20 PM 37.2711 -86.3080 198° South 441 507 32,900 1,481 Climbing FlightAware ADS-B
Thu 04:58:04 PM 37.1810 -86.3390 195° South 469 540 33,900 857 Climbing FlightAware ADS-B
Thu 04:58:37 PM 37.1065 -86.3414 181° South 507 583 34,000 115 Climbing FlightAware ADS-B
Thu 04:58:56 PM 37.0610 -86.3302 169° South 528 608 34,000  Level FlightAware ADS-B
Thu 04:59:28 PM 36.9857 -86.3054 165° South 528 608 34,000  Level FlightAware ADS-B
Thu 04:59:58 PM 36.9149 -86.2815 165° South 526 605 34,000  Level FlightAware ADS-B
Thu 05:00:28 PM 36.8448 -86.2578 165° South 514 592 34,000  Level FlightAware ADS-B
Thu 05:00:58 PM 36.7763 -86.2351 165° South 503 579 34,000 400 Level FlightAware ADS-B
Thu 05:01:28 PM 36.7083 -86.2133 166° South 505 581 34,400 625 Climbing FlightAware ADS-B
Thu 05:02:34 PM 36.5630 -86.1670 166° South 495 570 35,000 444 Climbing FlightAware ADS-B
Thu 05:02:49 PM 36.5276 -86.1557 166° South 503 579 35,000  Level FlightAware ADS-B
Thu 05:03:20 PM 36.4593 -86.1338 166° South 499 574 35,000  Level FlightAware ADS-B
Thu 05:03:53 PM 36.3851 -86.1103 166° South 502 578 35,000  Level FlightAware ADS-B
Thu 05:04:24 PM 36.3159 -86.0882 166° South 504 580 35,000  Level FlightAware ADS-B
Thu 05:05:00 PM 36.2342 -86.0621 166° South 505 581 35,000  Level FlightAware ADS-B
Thu 05:05:33 PM 36.1578 -86.0377 166° South 504 580 35,000  Level FlightAware ADS-B
Thu 05:06:04 PM 36.0894 -86.0160 166° South 503 579 35,000  Level FlightAware ADS-B
Thu 05:06:34 PM 36.0204 -85.9940 166° South 500 575 35,000  Level FlightAware ADS-B
Thu 05:07:16 PM 35.9263 -85.9642 166° South 497 572 35,000  Level FlightAware ADS-B
Thu 05:07:47 PM 35.8583 -85.9428 166° South 493 567 35,000  Level FlightAware ADS-B
Thu 05:08:17 PM 35.7912 -85.9216 166° South 490 564 35,000  Level FlightAware ADS-B
Thu 05:08:48 PM 35.7234 -85.9002 166° South 487 560 35,000  Level FlightAware ADS-B
Thu 05:09:21 PM 35.6532 -85.8783 166° South 484 557 35,000  Level FlightAware ADS-B
Thu 05:09:52 PM 35.5870 -85.8580 166° South 481 554 35,000  Level FlightAware ADS-B
Thu 05:10:42 PM 35.4790 -85.8240 166° South 475 547 35,000  Level FlightAware ADS-B
Thu 05:11:50 PM 35.3350 -85.7790 166° South 468 539 35,000  Level FlightAware ADS-B
Thu 05:12:26 PM 35.2600 -85.7560 166° South 466 536 35,000  Level FlightAware ADS-B
Thu 05:12:53 PM 35.2017 -85.7375 165° South 465 535 35,000  Level FlightAware ADS-B
Thu 05:13:24 PM 35.1357 -85.7169 166° South 465 535 35,000  Level FlightAware ADS-B
Thu 05:13:55 PM 35.0729 -85.6975 166° South 465 535 35,000  Level FlightAware ADS-B
Thu 05:14:25 PM 35.0086 -85.6777 166° South 465 535 35,000  Level FlightAware ADS-B
Thu 05:14:57 PM 34.9428 -85.6573 166° South 466 536 35,000  Level FlightAware ADS-B
Thu 05:15:54 PM 34.8232 -85.6205 166° South 470 541 35,000  Level FlightAware ADS-B
Thu 05:16:34 PM 34.7379 -85.5943 166° South 473 544 35,000  Level FlightAware ADS-B
Thu 05:17:13 PM 34.6540 -85.5687 166° South 475 547 35,000  Level FlightAware ADS-B
Thu 05:17:49 PM 34.5769 -85.5451 166° South 478 550 35,000  Level FlightAware ADS-B
Thu 05:18:20 PM 34.5108 -85.5249 166° South 480 552 35,000  Level FlightAware ADS-B
Thu 05:19:34 PM 34.3502 -85.4762 166° South 481 554 35,000  Level FlightAware ADS-B
Thu 05:20:46 PM 34.2170 -85.4340 165° South 481 554 35,000  Level FlightAware ADS-B
Thu 05:21:34 PM 34.1290 -85.4050 165° South 481 554 35,000  Level FlightAware ADS-B
Thu 05:22:10 PM 34.0630 -85.3840 165° South 481 554 35,000  Level FlightAware ADS-B
Thu 05:22:34 PM 34.0190 -85.3700 165° South 481 554 35,000  Level FlightAware ADS-B
Thu 05:23:10 PM 33.9540 -85.3490 165° South 481 554 35,000  Level FlightAware ADS-B
Thu 05:23:34 PM 33.9100 -85.3340 164° South 481 554 35,000  Level FlightAware ADS-B
Thu 05:24:06 PM 33.7680 -85.3000 169° South 468 539 35,000  Level FlightAware ADS-B
Thu 05:24:26 PM 33.7230 -85.2870 166° South 467 537 35,000  Level FlightAware ADS-B
Thu 05:25:26 PM 33.5990 -85.2500 166° South 472 543 35,000  Level FlightAware ADS-B
Thu 05:26:01 PM 33.5240 -85.2280 166° South 471 542 35,000  Level FlightAware ADS-B
Thu 05:26:36 PM 33.4480 -85.2050 166° South 470 541 35,000  Level FlightAware ADS-B
Thu 05:27:36 PM 33.3260 -85.1690 166° South 468 539 35,000  Level FlightAware ADS-B
Thu 05:28:06 PM 33.2610 -85.1500 166° South 468 539 35,000  Level FlightAware ADS-B
Thu 05:29:01 PM 33.1450 -85.1150 166° South 467 537 35,000  Level FlightAware ADS-B
Thu 05:29:56 PM 33.0320 -85.0820 166° South 466 536 35,000  Level FlightAware ADS-B
Thu 05:30:56 PM 32.9060 -85.0450 166° South 466 536 35,000  Level FlightAware ADS-B
Thu 05:31:26 PM 32.8460 -85.0270 166° South 466 536 35,000  Level FlightAware ADS-B
Thu 05:32:06 PM 32.7600 -85.0020 166° South 468 539 35,000  Level FlightAware ADS-B
Thu 05:32:42 PM 32.6820 -84.9800 167° South 470 541 35,000  Level FlightAware ADS-B
Thu 05:33:36 PM 32.5730 -84.9480 166° South 471 542 35,000  Level FlightAware ADS-B
Thu 05:34:54 PM 32.3990 -84.8970 166° South 473 544 35,000  Level FlightAware ADS-B
Thu 05:35:14 PM 32.3540 -84.8840 166° South 473 544 35,000  Level FlightAware ADS-B
Thu 05:35:53 PM 32.2740 -84.8610 166° South 472 543 35,000  Level FlightAware ADS-B
Thu 05:36:54 PM 32.1410 -84.8230 166° South 471 542 35,000  Level FlightAware ADS-B
Thu 05:37:31 PM 32.0650 -84.8000 166° South 472 543 35,000  Level FlightAware ADS-B
Thu 05:38:38 PM 31.9200 -84.7590 167° South 471 542 35,000  Level FlightAware ADS-B
Thu 05:39:28 PM 31.8150 -84.7290 166° South 470 541 35,000  Level FlightAware ADS-B
Thu 05:40:27 PM 31.6900 -84.6930 166° South 467 537 35,000  Level FlightAware ADS-B
Thu 05:40:53 PM 31.6350 -84.6770 166° South 466 536 35,000  Level FlightAware ADS-B
Thu 05:41:25 PM 31.5670 -84.6560 165° South 470 541 35,000  Level FlightAware ADS-B
Thu 05:41:56 PM 31.5040 -84.6280 159° South 478 550 35,000  Level FlightAware ADS-B
Thu 05:42:29 PM 31.4380 -84.5910 154° Southeast 482 555 35,000  Level FlightAware ADS-B
Thu 05:43:30 PM 31.3160 -84.5220 154° Southeast 480 552 35,000  Level FlightAware ADS-B
Thu 05:44:04 PM 31.2460 -84.4830 155° Southeast 479 551 35,000  Level FlightAware ADS-B
Thu 05:44:56 PM 31.1420 -84.4270 155° Southeast 477 549 35,000  Level FlightAware ADS-B
Thu 05:45:24 PM 31.0847 -84.3953 155° Southeast 476 548 35,000  Level FlightAware ADS-B (KONZ)
Thu 05:45:55 PM 31.0247 -84.3627 155° Southeast 476 548 35,000  Level FlightAware ADS-B (KONZ)
Thu 05:46:34 PM 30.9456 -84.3197 155° Southeast 475 547 35,000  Level FlightAware ADS-B (KONZ)
Thu 05:47:09 PM 30.8757 -84.2817 155° Southeast 475 547 35,000  Level FlightAware ADS-B (KONZ)
Thu 05:47:43 PM 30.8084 -84.2451 155° Southeast 475 547 35,000  Level FlightAware ADS-B (KONZ)
Thu 05:48:24 PM 30.7310 -84.2032 155° Southeast 476 548 35,000  Level FlightAware ADS-B (KONZ)
Thu 05:49:03 PM 30.6547 -84.1619 155° Southeast 476 548 35,000  Level FlightAware ADS-B (KONZ)
Thu 05:49:44 PM 30.5712 -84.1167 155° Southeast 477 549 35,000  Level FlightAware ADS-B (KONZ)
Thu 05:50:14 PM 30.5069 -84.0820 155° Southeast 476 548 35,000  Level FlightAware ADS-B (KONZ)
Thu 05:50:54 PM 30.4275 -84.0392 155° Southeast 476 548 35,000  Level FlightAware ADS-B (KONZ)
Thu 05:51:33 PM 30.3536 -83.9995 155° Southeast 475 547 35,000  Level FlightAware ADS-B (KONZ)
Thu 05:52:13 PM 30.2694 -83.9542 155° Southeast 473 544 35,000  Level FlightAware ADS-B (KONZ)
Thu 05:52:43 PM 30.2125 -83.9237 155° Southeast 473 544 35,000  Level FlightAware ADS-B (KONZ)
Thu 05:53:19 PM 30.1422 -83.8862 155° Southeast 472 543 35,000  Level FlightAware ADS-B (KONZ)
Thu 05:53:51 PM 30.0744 -83.8500 155° Southeast 472 543 35,000  Level FlightAware ADS-B (KONZ)
Thu 05:54:23 PM 30.0109 -83.8161 155° Southeast 471 542 35,000  Level FlightAware ADS-B (KONZ)
Thu 05:55:23 PM 29.8930 -83.7530 155° Southeast 469 540 35,000  Level FlightAware ADS-B
Thu 05:55:40 PM 29.8592 -83.7353 156° South 469 540 35,000  Level FlightAware ADS-B (KONZ)
Thu 05:56:21 PM 29.7820 -83.6940 155° Southeast 468 539 35,000  Level FlightAware ADS-B
Thu 05:57:07 PM 29.6880 -83.6440 155° Southeast 468 539 35,000  Level FlightAware ADS-B
Thu 05:57:59 PM 29.5860 -83.5910 156° South 468 539 35,000  Level FlightAware ADS-B
Thu 05:58:33 PM 29.5190 -83.5550 155° Southeast 467 537 35,000  Level FlightAware ADS-B
Thu 05:59:10 PM 29.4480 -83.5180 156° South 466 536 35,000  Level FlightAware ADS-B
Thu 05:59:49 PM 29.3690 -83.4760 155° Southeast 465 535 35,000  Level FlightAware ADS-B
Thu 06:00:17 PM 29.3130 -83.4470 156° South 464 534 35,000  Level FlightAware ADS-B
Thu 06:01:20 PM 29.1910 -83.3830 155° Southeast 463 533 35,000  Level FlightAware ADS-B
Thu 06:01:50 PM 29.1320 -83.3520 155° Southeast 462 532 35,000  Level FlightAware ADS-B
Thu 06:02:22 PM 29.0690 -83.3190 155° Southeast 462 532 35,000  Level FlightAware ADS-B
Thu 06:03:26 PM 28.9440 -83.2540 156° South 462 532 35,000  Level FlightAware ADS-B
Thu 06:04:25 PM 28.8290 -83.1940 155° Southeast 462 532 35,000  Level FlightAware ADS-B
Thu 06:04:53 PM 28.7740 -83.1650 155° Southeast 462 532 35,000  Level FlightAware ADS-B
Thu 06:05:30 PM 28.7020 -83.1280 156° South 462 532 35,000  Level FlightAware ADS-B
Thu 06:06:15 PM 28.6140 -83.0830 156° South 462 532 35,000  Level FlightAware ADS-B
Thu 06:07:08 PM 28.5120 -83.0300 155° Southeast 463 533 35,000  Level FlightAware ADS-B
Thu 06:07:57 PM 28.4150 -82.9800 156° South 464 534 35,000  Level FlightAware ADS-B
Thu 06:08:36 PM 28.3370 -82.9400 156° South 465 535 35,000  Level FlightAware ADS-B
Thu 06:09:29 PM 28.2360 -82.8880 156° South 465 535 35,000  Level FlightAware ADS-B
Thu 06:10:12 PM 28.1500 -82.8440 156° South 464 534 35,000  Level FlightAware ADS-B
Thu 06:11:01 PM 28.0530 -82.7940 156° South 463 533 35,000  Level FlightAware ADS-B
Thu 06:11:56 PM 27.9450 -82.7410 157° South 460 529 35,000  Level FlightAware ADS-B
Thu 06:12:48 PM 27.8410 -82.7000 161° South 457 526 35,000  Level FlightAware ADS-B
Thu 06:13:48 PM 27.7210 -82.6550 162° South 459 528 35,000  Level FlightAware ADS-B
Thu 06:14:41 PM 27.6130 -82.6150 162° South 460 529 35,000  Level FlightAware ADS-B
Thu 06:15:20 PM 27.5350 -82.5860 162° South 462 532 35,000  Level FlightAware ADS-B
Thu 06:16:29 PM 27.3930 -82.5330 162° South 464 534 35,000  Level FlightAware ADS-B
Thu 06:17:15 PM 27.2990 -82.4980 162° South 464 534 35,000  Level FlightAware ADS-B
Thu 06:18:11 PM 27.1890 -82.4570 162° South 466 536 35,000  Level FlightAware ADS-B
Thu 06:19:06 PM 27.0840 -82.4170 161° South 466 536 35,000  Level FlightAware ADS-B
Thu 06:20:10 PM 27.0440 -82.4020 162° South 466 536 35,000  Level FlightAware ADS-B
Thu 06:20:45 PM 26.9840 -82.3780 160° South 466 536 35,000  Level FlightAware ADS-B
Thu 06:21:09 PM 26.9420 -82.3620 161° South 466 536 35,000  Level FlightAware ADS-B
Thu 06:22:23 PM 26.8140 -82.3130 161° South 466 536 35,000 -1,385 Level FlightAware ADS-B
Thu 06:23:58 PM 26.5930 -81.8960 121° Southeast 468 539 31,100 -2,418 Descending FlightAware ADS-B
Thu 06:24:37 PM 26.5320 -81.8300 136° Southeast 461 531 29,600 -2,336 Descending FlightAware ADS-B
Thu 06:25:51 PM 26.4140 -81.7220 141° Southeast 440 506 26,700 -2,242 Descending FlightAware ADS-B
Thu 06:26:08 PM 26.3830 -81.7030 151° Southeast 439 505 26,200 -1,800 Descending FlightAware ADS-B
Thu 06:26:41 PM 26.3270 -81.6690 151° Southeast 438 504 25,200 -1,769 Descending FlightAware ADS-B
Thu 06:27:26 PM 26.2470 -81.6220 152° Southeast 417 480 23,900 -1,787 Descending FlightAware ADS-B
Thu 06:28:15 PM 26.1620 -81.5730 153° Southeast 402 463 22,400 -1,738 Descending FlightAware ADS-B
Thu 06:29:13 PM 26.0710 -81.5190 152° Southeast 396 456 20,800 -2,110 Descending FlightAware ADS-B
Thu 06:29:46 PM 26.0280 -81.4650 132° Southeast 401 461 19,200 -3,045 Descending FlightAware ADS-B
Thu 06:30:20 PM 26.0080 -81.3970 108° East 398 458 17,400 -3,191 Descending FlightAware ADS-B
Thu 06:31:20 PM 25.9780 -81.2860 107° East 378 435 14,200 -2,811 Descending FlightAware ADS-B
Thu 06:32:11 PM 25.9500 -81.1870 107° East 380 437 12,200 -2,188 Descending FlightAware ADS-B
Thu 06:32:45 PM 25.9330 -81.1230 106° East 374 430 11,100 -1,412 Descending FlightAware ADS-B
Thu 06:33:36 PM 25.9080 -81.0310 107° East 344 396 10,200 -815 Descending FlightAware ADS-B
Thu 06:34:06 PM 25.8950 -80.9830 107° East 325 374 10,000 -327 Descending FlightAware ADS-B
Thu 06:34:31 PM 25.8890 -80.9430 99° East 290 334 9,900 -222 Descending FlightAware ADS-B
Thu 06:35:00 PM 25.8850 -80.9020 96° East 270 311 9,800 -700 Descending FlightAware ADS-B
Thu 06:35:31 PM 25.8810 -80.8590 96° East 272 313 9,200 -1,059 Descending FlightAware ADS-B
Thu 06:35:51 PM 25.8780 -80.8310 97° East 267 307 8,900 -1,222 Descending FlightAware ADS-B
Thu 06:36:25 PM 25.8650 -80.7860 108° East 262 302 8,100 -1,444 Descending FlightAware ADS-B
Thu 06:36:45 PM 25.8540 -80.7610 116° Southeast 264 304 7,600 -1,440 Descending FlightAware ADS-B
Thu 06:37:15 PM 25.8370 -80.7240 117° Southeast 266 306 6,900 -1,467 Descending FlightAware ADS-B
Thu 06:37:30 PM 25.8340 -80.7050 100° East 259 298 6,500 -1,317 Descending FlightAware ADS-B
Thu 06:37:56 PM 25.8350 -80.6730 88° East 248 285 6,000 -646 Descending FlightAware ADS-B
Thu 06:38:35 PM 25.8360 -80.6260 89° East 216 249 5,800 -738 Descending FlightAware ADS-B
Thu 06:39:01 PM 25.8330 -80.5990 97° East 207 238 5,200 -1,529 Descending FlightAware ADS-B
Thu 06:39:26 PM 25.8260 -80.5750 108° East 204 235 4,500 -1,444 Descending FlightAware ADS-B
Thu 06:39:55 PM 25.8170 -80.5430 107° East 198 228 3,900 -1,080 Descending FlightAware ADS-B
Thu 06:40:16 PM 25.8110 -80.5240 109° East 191 220 3,600 -878 Descending FlightAware ADS-B
Thu 06:40:36 PM 25.8060 -80.5050 106° East 188 216 3,300 -857 Descending FlightAware ADS-B
Thu 06:41:05 PM 25.7990 -80.4780 106° East 178 205 2,900 -764 Descending FlightAware ADS-B
Thu 06:41:31 PM 25.7960 -80.4540 98° East 194 223 2,600 -783 Descending FlightAware ADS-B
Thu 06:41:51 PM 25.7970 -80.4350 87° East 187 215 2,300 -818 Descending FlightAware ADS-B
Thu 06:42:15 PM 25.7980 -80.4120 87° East 169 194 2,000 -955 Descending FlightAware ADS-B
Thu 06:42:35 PM 25.7990 -80.3950 86° East 156 180 1,600 -1,050 Descending FlightAware ADS-B
Thu 06:42:55 PM 25.8000 -80.3790 86° East 147 169 1,300 -766 Descending FlightAware ADS-B
Thu 06:43:22 PM 25.8010 -80.3600 87° East 132 152 1,000 -643 Descending FlightAware ADS-B
Thu 06:43:51 PM 25.8010 -80.3400 90° East 134 154 700 -774 Descending FlightAware ADS-B
Thu 06:44:24 PM 25.8020 -80.3170 87° East 138 159 200 -909 Descending FlightAware ADS-B
Thu 06:44:48 PM 25.8030 -80.3000 86° East 141 162 -500 Descending FlightAware ADS-B
Thu 06:45:01 PM 25.8030 -80.2930 90° East 115 132  Level FlightAware ADS-B
Thu 06:45:29 PM 25.8040 -80.2790 85° East 115 132  Level FlightAware ADS-B

Login

Don't have an account? Register now (free) for customized features, flight alerts, and more!